• Join FlightAware (Why Join?)
  • Login
  • US Flag 
12:37AM EDT


 

Airport Tracker/Info


-or-


 

Live Flight TrackerFlight Track Log ✈ EJA929 ✈ 02-Jun-2013 ✈ KORD - KHYR

Flight Track Log - Related Links

Times and Time Zones

All times are in EDT time to prevent confusion due to time zone crossing. See the EJA929 flight status page for this flight to view local times or setup timezone preferences in your user account.

Time Position Orientation Groundspeed Altitude Reporting Facility
EDT Latitude Longitude Course Direction KTS MPH feet Rate Location/Type
06:15PM 42.0167 -87.9667 323° Northwest 184 212 4,200  Level Chicago TRACON
06:16PM 42.0667 -88.0167 323° Northwest 256 295 5,000 360 Climbing Chicago TRACON
06:17PM 42.1167 -88.0500 334° Northwest 251 289 5,000 180 Level Chicago TRACON
06:18PM 42.1972 -88.0572 356° North 252 290 5,400 1,500 Climbing Chicago Center
06:19PM 42.2722 -88.0586 359° North 265 305 8,300 2,940 Climbing Chicago Center
06:20PM 42.3564 -88.0578 360° North 279 321 11,500 2,820 Climbing Chicago Center
06:21PM 42.4419 -88.0556 North 301 346 14,200 2,160 Climbing Chicago Center
06:22PM 42.5186 -88.1144 330° Northwest 319 367 16,000 1,200 Climbing Chicago Center
06:23PM 42.6194 -88.2053 326° Northwest 372 428 16,800 720 Climbing Chicago Center
06:24PM 42.7119 -88.2872 327° Northwest 393 452 17,600 900 Climbing Chicago Center
06:25PM 42.8072 -88.3722 327° Northwest 406 467 18,700 1,200 Climbing Chicago Center
06:26PM 42.9028 -88.4561 327° Northwest 406 467 20,200 1,440 Climbing Chicago Center
06:27PM 42.9992 -88.5453 326° Northwest 414 476 21,700 1,440 Climbing Chicago Center
06:28PM 43.0975 -88.6342 327° Northwest 420 483 23,200 1,080 Climbing Chicago Center
06:29PM 43.2178 -88.7411 327° Northwest 436 502 24,000 360 Climbing Chicago Center
06:30PM 43.3253 -88.8394 326° Northwest 455 524 24,000  Level Chicago Center
06:31PM 43.4333 -88.9389 326° Northwest 461 531 24,000  Level Chicago Center
06:32PM 43.5392 -89.0356 327° Northwest 454 522 24,000  Level Chicago Center
06:34PM 43.6417 -89.1286 327° Northwest 443 510 24,000  Level Chicago Center
06:35PM 43.7431 -89.2239 326° Northwest 438 504 24,000  Level Chicago Center
06:36PM 43.8450 -89.3169 327° Northwest 437 503 24,000  Level Chicago Center
06:37PM 43.9656 -89.4294 326° Northwest 445 512 24,000  Level Chicago Center
06:38PM 44.0717 -89.5300 326° Northwest 455 524 24,000  Level Chicago Center
06:39PM 44.1778 -89.6281 326° Northwest 458 527 24,000  Level Chicago Center
06:39PM 44.2114 -89.6611 325° Northwest 457 526 24,000  Level Minneapolis Center
06:40PM 44.3161 -89.7600 326° Northwest 455 524 24,000  Level Minneapolis Center
06:41PM 44.4211 -89.8603 326° Northwest 456 525 24,000  Level Minneapolis Center
06:42PM 44.5258 -89.9578 326° Northwest 453 521 24,000  Level Minneapolis Center
06:43PM 44.6286 -90.0572 325° Northwest 449 517 24,000  Level Minneapolis Center
06:44PM 44.7492 -90.1733 326° Northwest 451 519 24,000  Level Minneapolis Center
06:45PM 44.8475 -90.2697 325° Northwest 450 518 24,000 -420 Level Minneapolis Center
06:46PM 44.9458 -90.3675 325° Northwest 438 504 23,200 -1,320 Descending Minneapolis Center
06:47PM 45.0456 -90.4625 326° Northwest 433 498 21,300 -1,800 Descending Minneapolis Center
06:48PM 45.1436 -90.5578 326° Northwest 428 493 19,600 -1,800 Descending Minneapolis Center
06:49PM 45.2561 -90.6708 325° Northwest 415 478 17,600 -1,800 Descending Minneapolis Center
06:50PM 45.3475 -90.7608 325° Northwest 402 463 16,000 -1,500 Descending Minneapolis Center
06:51PM 45.4361 -90.8500 325° Northwest 393 452 14,500 -1,500 Descending Minneapolis Center
06:52PM 45.5236 -90.9378 325° Northwest 387 445 13,000 -1,500 Descending Minneapolis Center
06:53PM 45.6111 -91.0250 325° Northwest 385 443 11,500 -1,380 Descending Minneapolis Center
06:54PM 45.6928 -91.1058 325° Northwest 372 428 10,200 -1,200 Descending Minneapolis Center
06:56PM 45.7528 -91.1664 325° Northwest 299 344 9,100 -1,620 Descending Minneapolis Center
06:57PM 45.8172 -91.2319 325° Northwest 249 287 6,900 -1,800 Descending Minneapolis Center
06:58PM 45.8622 -91.2761 326° Northwest 242 278 5,400 -1,500 Descending Minneapolis Center
07:00PM 46.0167 -91.4333 325° Northwest  Level FlightAware Approximate
07:07PM 46.0253 -91.4443 325° Northwest  Level Estimated